Disclaimer

Please do not use the information listed here in-flight or in-navigation, as they are not provided to us by the airports but are provided by volunteers, so they might be outdated.

Search


Regions


Airport information page

Radio informations:
ABERDEEN TWR - 118.1 MHz
ABERDEEN APP - 119.05 MHz

Airport informations:
Latitude: 57° 12' 07.00" N
Longitude: 002° 11' 52.00" W
Elevation: 215 feet - 66 meters
Operating hours: Remarks
Operating agency: Civil government, landing fees and diplomatic clearance may be required
Timezone: UTC 0(+1DT) - Last Sunday in March to last Sunday in October
Fuel: N/A

Runway information:
05/23 - 1893 x 151 feet< - >577 x 46 meters
14/32 - 2165 x 75 feet< - >660 x 23 meters
16/34 - 6001 x 151 feet< - >1829 x 46 meters
18/36 - 853 x 75 feet< - >260 x 23 meters

Recent METARs:
EGPD 172020Z AUTO 15009KT 9999 BKN015 09/06 Q1034 TEMPO BKN014
EGPD 172050Z AUTO 15008KT 9999 OVC015 09/06 Q1034 TEMPO SCT014
EGPD 172120Z AUTO 15009KT 9999 OVC016 09/06 Q1034 NOSIG

Airport on the map: